Angatuba, Brazil
Current Conditions -  °F | °C
As of 7:00 AM on Saturday 01 Nov 2014 (Local Time) from SBKP Reporting Station
Light Rain Light Rain  
Wind Chill: 70°   Ceiling: Unl
Heat Index: 70°   Visibility: 6mi
Dew Point: 66°   Wind: 8mph
Humidity: 88%   Direction: 80°E
Pressure: 30.06"   Gusts: NA
Location:  23.49°S, 48.42°W
Report Text: SBKP 010900Z 08007KT 9999 -RA SCT046 SCT090 21/19 Q1018
Loading
Personal Weather Stations






























Interactive Weather Map
Tropical Storm Tracking
New forecast layout! Learn more

10-Day Weather Forecast

Advertisements
Track Severe Weather on mobile